sensor_id;sensor_type;location;lat;lon;timestamp;P1;durP1;ratioP1;P2;durP2;ratioP2
13683;SDS011;6914;53.552;9.908;2023-03-30T00:00:26;44.33;;;26.60;;
13683;SDS011;6914;53.552;9.908;2023-03-30T00:02:53;38.67;;;28.37;;
13683;SDS011;6914;53.552;9.908;2023-03-30T00:05:20;38.27;;;28.70;;
13683;SDS011;6914;53.552;9.908;2023-03-30T00:07:49;45.93;;;28.03;;
13683;SDS011;6914;53.552;9.908;2023-03-30T00:10:16;45.90;;;26.10;;
13683;SDS011;6914;53.552;9.908;2023-03-30T00:12:44;51.20;;;26.93;;
13683;SDS011;6914;53.552;9.908;2023-03-30T00:15:16;36.00;;;26.57;;
13683;SDS011;6914;53.552;9.908;2023-03-30T00:17:45;37.03;;;26.97;;
13683;SDS011;6914;53.552;9.908;2023-03-30T00:20:19;40.53;;;26.80;;
13683;SDS011;6914;53.552;9.908;2023-03-30T00:22:46;41.40;;;27.27;;
13683;SDS011;6914;53.552;9.908;2023-03-30T00:25:15;34.70;;;27.20;;
13683;SDS011;6914;53.552;9.908;2023-03-30T00:27:43;36.57;;;26.70;;
13683;SDS011;6914;53.552;9.908;2023-03-30T00:30:11;45.30;;;27.87;;
13683;SDS011;6914;53.552;9.908;2023-03-30T00:32:41;31.93;;;25.33;;
13683;SDS011;6914;53.552;9.908;2023-03-30T00:35:08;37.10;;;28.30;;
13683;SDS011;6914;53.552;9.908;2023-03-30T00:37:36;42.10;;;26.70;;
13683;SDS011;6914;53.552;9.908;2023-03-30T00:40:04;34.70;;;27.00;;
13683;SDS011;6914;53.552;9.908;2023-03-30T00:42:33;36.67;;;26.23;;
13683;SDS011;6914;53.552;9.908;2023-03-30T00:45:14;37.13;;;26.87;;
13683;SDS011;6914;53.552;9.908;2023-03-30T00:47:47;37.03;;;24.47;;
13683;SDS011;6914;53.552;9.908;2023-03-30T00:50:19;34.93;;;24.50;;
13683;SDS011;6914;53.552;9.908;2023-03-30T00:52:49;41.37;;;24.67;;
13683;SDS011;6914;53.552;9.908;2023-03-30T00:55:23;34.20;;;25.40;;
13683;SDS011;6914;53.552;9.908;2023-03-30T00:57:55;36.13;;;27.63;;
13683;SDS011;6914;53.552;9.908;2023-03-30T01:00:22;32.40;;;23.80;;
13683;SDS011;6914;53.552;9.908;2023-03-30T01:02:52;38.50;;;24.43;;
13683;SDS011;6914;53.552;9.908;2023-03-30T01:05:24;36.10;;;25.47;;
13683;SDS011;6914;53.552;9.908;2023-03-30T01:07:52;36.70;;;25.37;;
13683;SDS011;6914;53.552;9.908;2023-03-30T01:10:22;33.50;;;24.80;;
13683;SDS011;6914;53.552;9.908;2023-03-30T01:12:49;38.07;;;26.03;;
13683;SDS011;6914;53.552;9.908;2023-03-30T01:15:17;37.43;;;26.20;;
13683;SDS011;6914;53.552;9.908;2023-03-30T01:17:48;39.80;;;27.10;;
13683;SDS011;6914;53.552;9.908;2023-03-30T01:26:46;32.30;;;23.57;;
13683;SDS011;6914;53.552;9.908;2023-03-30T01:29:22;31.40;;;22.77;;
13683;SDS011;6914;53.552;9.908;2023-03-30T01:32:11;29.80;;;23.13;;
13683;SDS011;6914;53.552;9.908;2023-03-30T01:35:10;30.30;;;20.83;;
13683;SDS011;6914;53.552;9.908;2023-03-30T01:41:06;34.50;;;23.50;;
13683;SDS011;6914;53.552;9.908;2023-03-30T01:43:40;33.93;;;22.73;;
13683;SDS011;6914;53.552;9.908;2023-03-30T01:46:16;34.43;;;21.93;;
13683;SDS011;6914;53.552;9.908;2023-03-30T01:48:54;32.63;;;24.50;;
13683;SDS011;6914;53.552;9.908;2023-03-30T01:51:27;31.33;;;22.80;;
13683;SDS011;6914;53.552;9.908;2023-03-30T01:53:58;37.40;;;23.97;;
13683;SDS011;6914;53.552;9.908;2023-03-30T01:56:31;30.93;;;23.90;;
13683;SDS011;6914;53.552;9.908;2023-03-30T01:59:04;37.17;;;25.27;;
13683;SDS011;6914;53.552;9.908;2023-03-30T02:01:35;33.90;;;23.50;;
13683;SDS011;6914;53.552;9.908;2023-03-30T02:04:05;33.57;;;24.40;;
13683;SDS011;6914;53.552;9.908;2023-03-30T02:06:36;38.27;;;22.83;;
13683;SDS011;6914;53.552;9.908;2023-03-30T02:09:09;39.93;;;25.73;;
13683;SDS011;6914;53.552;9.908;2023-03-30T02:11:41;33.17;;;23.43;;
13683;SDS011;6914;53.552;9.908;2023-03-30T02:14:11;35.13;;;25.23;;
13683;SDS011;6914;53.552;9.908;2023-03-30T02:16:43;41.77;;;25.77;;
13683;SDS011;6914;53.552;9.908;2023-03-30T02:19:11;39.47;;;24.27;;
13683;SDS011;6914;53.552;9.908;2023-03-30T02:21:39;35.77;;;24.50;;
13683;SDS011;6914;53.552;9.908;2023-03-30T02:24:07;36.20;;;25.23;;
13683;SDS011;6914;53.552;9.908;2023-03-30T02:26:43;44.73;;;26.93;;
13683;SDS011;6914;53.552;9.908;2023-03-30T02:29:11;37.30;;;26.20;;
13683;SDS011;6914;53.552;9.908;2023-03-30T02:31:39;35.83;;;24.83;;
13683;SDS011;6914;53.552;9.908;2023-03-30T02:34:08;39.30;;;25.43;;
13683;SDS011;6914;53.552;9.908;2023-03-30T02:37:01;42.43;;;25.30;;
13683;SDS011;6914;53.552;9.908;2023-03-30T02:40:00;34.40;;;24.37;;
13683;SDS011;6914;53.552;9.908;2023-03-30T02:45:47;37.10;;;25.00;;
13683;SDS011;6914;53.552;9.908;2023-03-30T02:48:29;34.80;;;24.27;;
13683;SDS011;6914;53.552;9.908;2023-03-30T02:51:06;40.50;;;24.77;;
13683;SDS011;6914;53.552;9.908;2023-03-30T02:53:46;39.63;;;25.47;;
13683;SDS011;6914;53.552;9.908;2023-03-30T02:56:22;39.40;;;24.77;;
13683;SDS011;6914;53.552;9.908;2023-03-30T02:58:55;38.47;;;23.77;;
13683;SDS011;6914;53.552;9.908;2023-03-30T03:01:29;39.67;;;24.10;;
13683;SDS011;6914;53.552;9.908;2023-03-30T03:04:01;38.23;;;23.97;;
13683;SDS011;6914;53.552;9.908;2023-03-30T03:06:30;34.53;;;23.57;;
13683;SDS011;6914;53.552;9.908;2023-03-30T03:08:57;42.87;;;25.77;;
13683;SDS011;6914;53.552;9.908;2023-03-30T03:11:25;33.93;;;24.60;;
13683;SDS011;6914;53.552;9.908;2023-03-30T03:13:54;34.17;;;24.50;;
13683;SDS011;6914;53.552;9.908;2023-03-30T03:16:21;39.10;;;26.37;;
13683;SDS011;6914;53.552;9.908;2023-03-30T03:18:49;40.17;;;25.50;;
13683;SDS011;6914;53.552;9.908;2023-03-30T03:21:17;41.07;;;24.50;;
13683;SDS011;6914;53.552;9.908;2023-03-30T03:23:44;39.37;;;25.63;;
13683;SDS011;6914;53.552;9.908;2023-03-30T03:26:12;37.60;;;25.90;;
13683;SDS011;6914;53.552;9.908;2023-03-30T03:28:39;38.83;;;24.90;;
13683;SDS011;6914;53.552;9.908;2023-03-30T03:31:08;53.70;;;29.13;;
13683;SDS011;6914;53.552;9.908;2023-03-30T03:33:36;41.47;;;27.37;;
13683;SDS011;6914;53.552;9.908;2023-03-30T03:36:03;37.13;;;26.33;;
13683;SDS011;6914;53.552;9.908;2023-03-30T03:38:30;37.20;;;23.90;;
13683;SDS011;6914;53.552;9.908;2023-03-30T03:40:57;45.60;;;26.00;;
13683;SDS011;6914;53.552;9.908;2023-03-30T03:43:24;41.47;;;26.90;;
13683;SDS011;6914;53.552;9.908;2023-03-30T03:45:52;35.70;;;24.57;;
13683;SDS011;6914;53.552;9.908;2023-03-30T03:48:23;36.80;;;25.80;;
13683;SDS011;6914;53.552;9.908;2023-03-30T03:50:51;38.87;;;25.57;;
13683;SDS011;6914;53.552;9.908;2023-03-30T03:53:21;50.83;;;26.77;;
13683;SDS011;6914;53.552;9.908;2023-03-30T03:55:50;47.97;;;24.27;;
13683;SDS011;6914;53.552;9.908;2023-03-30T03:58:19;37.13;;;24.77;;
13683;SDS011;6914;53.552;9.908;2023-03-30T04:00:47;43.07;;;26.30;;
13683;SDS011;6914;53.552;9.908;2023-03-30T04:03:14;46.87;;;26.23;;
13683;SDS011;6914;53.552;9.908;2023-03-30T04:05:42;36.80;;;24.90;;
13683;SDS011;6914;53.552;9.908;2023-03-30T04:08:09;42.00;;;26.97;;
13683;SDS011;6914;53.552;9.908;2023-03-30T04:10:36;37.27;;;25.23;;
13683;SDS011;6914;53.552;9.908;2023-03-30T04:13:03;42.50;;;25.53;;
13683;SDS011;6914;53.552;9.908;2023-03-30T04:15:31;46.43;;;24.17;;
13683;SDS011;6914;53.552;9.908;2023-03-30T04:17:58;40.57;;;23.23;;
13683;SDS011;6914;53.552;9.908;2023-03-30T04:20:26;43.60;;;22.53;;
13683;SDS011;6914;53.552;9.908;2023-03-30T04:22:56;34.43;;;22.47;;
13683;SDS011;6914;53.552;9.908;2023-03-30T04:25:26;34.43;;;22.97;;
13683;SDS011;6914;53.552;9.908;2023-03-30T04:27:54;38.80;;;24.37;;
13683;SDS011;6914;53.552;9.908;2023-03-30T04:30:22;31.47;;;22.40;;
13683;SDS011;6914;53.552;9.908;2023-03-30T04:32:50;42.30;;;24.87;;
13683;SDS011;6914;53.552;9.908;2023-03-30T04:35:27;46.23;;;25.00;;
13683;SDS011;6914;53.552;9.908;2023-03-30T04:37:56;46.70;;;21.60;;
13683;SDS011;6914;53.552;9.908;2023-03-30T04:40:24;42.23;;;24.27;;
13683;SDS011;6914;53.552;9.908;2023-03-30T04:42:51;34.87;;;24.47;;
13683;SDS011;6914;53.552;9.908;2023-03-30T04:45:26;32.97;;;21.27;;
13683;SDS011;6914;53.552;9.908;2023-03-30T04:47:54;31.97;;;22.33;;
13683;SDS011;6914;53.552;9.908;2023-03-30T04:50:21;29.80;;;20.63;;
13683;SDS011;6914;53.552;9.908;2023-03-30T04:52:48;34.10;;;20.93;;
13683;SDS011;6914;53.552;9.908;2023-03-30T04:55:17;36.57;;;22.07;;
13683;SDS011;6914;53.552;9.908;2023-03-30T04:57:43;34.80;;;22.13;;
13683;SDS011;6914;53.552;9.908;2023-03-30T05:00:11;29.20;;;19.67;;
13683;SDS011;6914;53.552;9.908;2023-03-30T05:02:38;31.87;;;21.67;;
13683;SDS011;6914;53.552;9.908;2023-03-30T05:05:06;28.60;;;20.73;;
13683;SDS011;6914;53.552;9.908;2023-03-30T05:07:33;30.93;;;20.60;;
13683;SDS011;6914;53.552;9.908;2023-03-30T05:10:00;33.43;;;20.23;;
13683;SDS011;6914;53.552;9.908;2023-03-30T05:12:28;29.77;;;19.07;;
13683;SDS011;6914;53.552;9.908;2023-03-30T05:14:56;24.60;;;18.67;;
13683;SDS011;6914;53.552;9.908;2023-03-30T05:17:22;31.00;;;18.53;;
13683;SDS011;6914;53.552;9.908;2023-03-30T05:19:49;22.30;;;16.50;;
13683;SDS011;6914;53.552;9.908;2023-03-30T05:22:17;21.70;;;15.60;;
13683;SDS011;6914;53.552;9.908;2023-03-30T05:24:45;24.07;;;16.20;;
13683;SDS011;6914;53.552;9.908;2023-03-30T05:27:12;25.07;;;16.20;;
13683;SDS011;6914;53.552;9.908;2023-03-30T05:29:40;20.30;;;14.47;;
13683;SDS011;6914;53.552;9.908;2023-03-30T05:32:07;28.70;;;16.10;;
13683;SDS011;6914;53.552;9.908;2023-03-30T05:34:34;30.37;;;15.07;;
13683;SDS011;6914;53.552;9.908;2023-03-30T05:37:01;23.10;;;13.73;;
13683;SDS011;6914;53.552;9.908;2023-03-30T05:39:28;25.53;;;15.60;;
13683;SDS011;6914;53.552;9.908;2023-03-30T05:41:55;19.43;;;15.00;;
13683;SDS011;6914;53.552;9.908;2023-03-30T05:44:22;19.40;;;13.07;;
13683;SDS011;6914;53.552;9.908;2023-03-30T05:46:51;19.20;;;12.40;;
13683;SDS011;6914;53.552;9.908;2023-03-30T05:49:18;16.17;;;11.63;;
13683;SDS011;6914;53.552;9.908;2023-03-30T05:51:45;17.73;;;12.40;;
13683;SDS011;6914;53.552;9.908;2023-03-30T05:54:12;86.97;;;15.27;;
13683;SDS011;6914;53.552;9.908;2023-03-30T05:56:39;19.93;;;11.70;;
13683;SDS011;6914;53.552;9.908;2023-03-30T05:59:06;22.73;;;11.10;;
13683;SDS011;6914;53.552;9.908;2023-03-30T06:01:34;15.20;;;10.90;;
13683;SDS011;6914;53.552;9.908;2023-03-30T06:04:03;19.63;;;10.37;;
13683;SDS011;6914;53.552;9.908;2023-03-30T06:06:30;13.33;;;10.47;;
13683;SDS011;6914;53.552;9.908;2023-03-30T06:08:57;26.60;;;9.70;;
13683;SDS011;6914;53.552;9.908;2023-03-30T06:11:24;13.83;;;10.40;;
13683;SDS011;6914;53.552;9.908;2023-03-30T06:13:52;13.90;;;9.80;;
13683;SDS011;6914;53.552;9.908;2023-03-30T06:16:19;13.80;;;11.03;;
13683;SDS011;6914;53.552;9.908;2023-03-30T06:18:46;12.40;;;10.97;;
13683;SDS011;6914;53.552;9.908;2023-03-30T06:21:14;15.07;;;9.83;;
13683;SDS011;6914;53.552;9.908;2023-03-30T06:23:41;16.87;;;10.10;;
13683;SDS011;6914;53.552;9.908;2023-03-30T06:26:08;18.80;;;11.10;;
13683;SDS011;6914;53.552;9.908;2023-03-30T06:28:35;13.40;;;10.73;;
13683;SDS011;6914;53.552;9.908;2023-03-30T06:31:06;13.03;;;10.27;;
13683;SDS011;6914;53.552;9.908;2023-03-30T06:33:34;16.10;;;10.33;;
13683;SDS011;6914;53.552;9.908;2023-03-30T06:36:01;16.47;;;10.63;;
13683;SDS011;6914;53.552;9.908;2023-03-30T06:38:30;21.30;;;11.00;;
13683;SDS011;6914;53.552;9.908;2023-03-30T06:41:02;13.33;;;8.90;;
13683;SDS011;6914;53.552;9.908;2023-03-30T06:43:32;16.30;;;9.70;;
13683;SDS011;6914;53.552;9.908;2023-03-30T06:45:59;13.07;;;9.00;;
13683;SDS011;6914;53.552;9.908;2023-03-30T06:48:26;15.50;;;8.97;;
13683;SDS011;6914;53.552;9.908;2023-03-30T06:50:54;15.30;;;8.93;;
13683;SDS011;6914;53.552;9.908;2023-03-30T06:53:22;11.03;;;9.87;;
13683;SDS011;6914;53.552;9.908;2023-03-30T06:55:51;15.27;;;7.90;;
13683;SDS011;6914;53.552;9.908;2023-03-30T06:58:20;13.97;;;8.47;;
13683;SDS011;6914;53.552;9.908;2023-03-30T07:00:47;11.43;;;8.50;;
13683;SDS011;6914;53.552;9.908;2023-03-30T07:03:14;20.70;;;9.10;;
13683;SDS011;6914;53.552;9.908;2023-03-30T07:05:42;11.43;;;8.57;;
13683;SDS011;6914;53.552;9.908;2023-03-30T07:08:12;19.40;;;8.00;;
13683;SDS011;6914;53.552;9.908;2023-03-30T07:10:39;31.70;;;8.00;;
13683;SDS011;6914;53.552;9.908;2023-03-30T07:13:08;22.60;;;8.80;;
13683;SDS011;6914;53.552;9.908;2023-03-30T07:15:35;17.63;;;8.07;;
13683;SDS011;6914;53.552;9.908;2023-03-30T07:18:01;9.70;;;7.70;;
13683;SDS011;6914;53.552;9.908;2023-03-30T07:20:28;12.07;;;6.40;;
13683;SDS011;6914;53.552;9.908;2023-03-30T07:22:56;19.93;;;8.07;;
13683;SDS011;6914;53.552;9.908;2023-03-30T07:25:25;10.00;;;8.00;;
13683;SDS011;6914;53.552;9.908;2023-03-30T07:27:52;17.23;;;6.80;;
13683;SDS011;6914;53.552;9.908;2023-03-30T07:30:21;38.10;;;7.10;;
13683;SDS011;6914;53.552;9.908;2023-03-30T07:32:48;18.40;;;6.53;;
13683;SDS011;6914;53.552;9.908;2023-03-30T07:35:15;7.47;;;5.83;;
13683;SDS011;6914;53.552;9.908;2023-03-30T07:37:42;8.00;;;7.30;;
13683;SDS011;6914;53.552;9.908;2023-03-30T07:40:09;7.90;;;6.57;;
13683;SDS011;6914;53.552;9.908;2023-03-30T07:42:36;8.30;;;6.47;;
13683;SDS011;6914;53.552;9.908;2023-03-30T07:45:03;16.27;;;6.10;;
13683;SDS011;6914;53.552;9.908;2023-03-30T07:47:33;17.07;;;6.90;;
13683;SDS011;6914;53.552;9.908;2023-03-30T07:50:01;12.03;;;7.40;;
13683;SDS011;6914;53.552;9.908;2023-03-30T07:52:28;29.33;;;8.40;;
13683;SDS011;6914;53.552;9.908;2023-03-30T07:54:56;9.33;;;6.30;;
13683;SDS011;6914;53.552;9.908;2023-03-30T07:57:24;9.37;;;7.30;;
13683;SDS011;6914;53.552;9.908;2023-03-30T07:59:50;13.87;;;6.80;;
13683;SDS011;6914;53.552;9.908;2023-03-30T08:02:17;9.23;;;5.33;;
13683;SDS011;6914;53.552;9.908;2023-03-30T08:04:46;30.50;;;8.20;;
13683;SDS011;6914;53.552;9.908;2023-03-30T08:07:12;17.23;;;6.83;;
13683;SDS011;6914;53.552;9.908;2023-03-30T08:09:40;8.97;;;6.00;;
13683;SDS011;6914;53.552;9.908;2023-03-30T08:12:09;13.03;;;6.07;;
13683;SDS011;6914;53.552;9.908;2023-03-30T08:14:36;20.57;;;6.90;;
13683;SDS011;6914;53.552;9.908;2023-03-30T08:17:03;21.30;;;6.80;;
13683;SDS011;6914;53.552;9.908;2023-03-30T08:19:30;11.83;;;6.20;;
13683;SDS011;6914;53.552;9.908;2023-03-30T08:22:01;9.57;;;5.13;;
13683;SDS011;6914;53.552;9.908;2023-03-30T08:24:28;6.00;;;4.70;;
13683;SDS011;6914;53.552;9.908;2023-03-30T08:26:54;5.27;;;4.63;;
13683;SDS011;6914;53.552;9.908;2023-03-30T08:29:21;11.50;;;5.33;;
13683;SDS011;6914;53.552;9.908;2023-03-30T08:31:49;7.30;;;5.60;;
13683;SDS011;6914;53.552;9.908;2023-03-30T08:34:16;12.33;;;5.80;;
13683;SDS011;6914;53.552;9.908;2023-03-30T08:36:43;20.67;;;6.57;;
13683;SDS011;6914;53.552;9.908;2023-03-30T08:39:11;65.37;;;9.50;;
13683;SDS011;6914;53.552;9.908;2023-03-30T08:44:52;6.47;;;4.90;;
13683;SDS011;6914;53.552;9.908;2023-03-30T08:47:30;22.23;;;7.50;;
13683;SDS011;6914;53.552;9.908;2023-03-30T08:49:59;8.40;;;5.40;;
13683;SDS011;6914;53.552;9.908;2023-03-30T08:52:33;10.97;;;5.83;;
13683;SDS011;6914;53.552;9.908;2023-03-30T08:55:04;11.93;;;5.30;;
13683;SDS011;6914;53.552;9.908;2023-03-30T08:57:35;14.73;;;4.90;;
13683;SDS011;6914;53.552;9.908;2023-03-30T09:00:14;11.43;;;5.30;;
13683;SDS011;6914;53.552;9.908;2023-03-30T09:02:46;19.97;;;5.27;;
13683;SDS011;6914;53.552;9.908;2023-03-30T09:05:17;8.37;;;4.63;;
13683;SDS011;6914;53.552;9.908;2023-03-30T09:07:50;9.60;;;4.93;;
13683;SDS011;6914;53.552;9.908;2023-03-30T09:10:24;8.67;;;5.03;;
13683;SDS011;6914;53.552;9.908;2023-03-30T09:12:56;10.93;;;4.93;;
13683;SDS011;6914;53.552;9.908;2023-03-30T09:15:27;9.40;;;5.57;;
13683;SDS011;6914;53.552;9.908;2023-03-30T09:17:58;12.37;;;5.13;;
13683;SDS011;6914;53.552;9.908;2023-03-30T09:20:30;15.30;;;5.00;;
13683;SDS011;6914;53.552;9.908;2023-03-30T09:23:00;12.10;;;4.87;;
13683;SDS011;6914;53.552;9.908;2023-03-30T09:25:33;15.40;;;5.50;;
13683;SDS011;6914;53.552;9.908;2023-03-30T09:28:05;10.10;;;4.80;;
13683;SDS011;6914;53.552;9.908;2023-03-30T09:30:38;34.20;;;6.90;;
13683;SDS011;6914;53.552;9.908;2023-03-30T09:33:11;8.73;;;5.10;;
13683;SDS011;6914;53.552;9.908;2023-03-30T09:35:56;19.70;;;4.80;;
13683;SDS011;6914;53.552;9.908;2023-03-30T09:38:32;8.97;;;4.50;;
13683;SDS011;6914;53.552;9.908;2023-03-30T09:41:10;4.90;;;4.60;;
13683;SDS011;6914;53.552;9.908;2023-03-30T09:43:43;22.30;;;5.60;;
13683;SDS011;6914;53.552;9.908;2023-03-30T09:46:12;5.37;;;4.93;;
13683;SDS011;6914;53.552;9.908;2023-03-30T09:48:41;11.17;;;5.17;;
13683;SDS011;6914;53.552;9.908;2023-03-30T09:51:12;15.37;;;5.70;;
13683;SDS011;6914;53.552;9.908;2023-03-30T09:53:41;9.90;;;4.80;;
13683;SDS011;6914;53.552;9.908;2023-03-30T09:56:17;4.93;;;4.30;;
13683;SDS011;6914;53.552;9.908;2023-03-30T09:58:47;6.10;;;3.50;;
13683;SDS011;6914;53.552;9.908;2023-03-30T10:01:15;7.17;;;4.50;;
13683;SDS011;6914;53.552;9.908;2023-03-30T10:03:44;7.37;;;3.73;;
13683;SDS011;6914;53.552;9.908;2023-03-30T10:06:30;7.33;;;4.43;;
13683;SDS011;6914;53.552;9.908;2023-03-30T10:09:02;5.07;;;3.87;;
13683;SDS011;6914;53.552;9.908;2023-03-30T10:11:35;8.53;;;3.87;;
13683;SDS011;6914;53.552;9.908;2023-03-30T10:14:07;3.60;;;3.30;;
13683;SDS011;6914;53.552;9.908;2023-03-30T10:16:48;7.90;;;3.20;;
13683;SDS011;6914;53.552;9.908;2023-03-30T10:19:16;4.43;;;3.90;;
13683;SDS011;6914;53.552;9.908;2023-03-30T10:21:45;3.73;;;3.10;;
13683;SDS011;6914;53.552;9.908;2023-03-30T10:24:17;4.53;;;4.13;;
13683;SDS011;6914;53.552;9.908;2023-03-30T10:26:50;6.23;;;3.60;;
13683;SDS011;6914;53.552;9.908;2023-03-30T10:29:20;7.57;;;3.70;;
13683;SDS011;6914;53.552;9.908;2023-03-30T10:31:49;7.80;;;3.60;;
13683;SDS011;6914;53.552;9.908;2023-03-30T10:34:24;3.90;;;2.90;;
13683;SDS011;6914;53.552;9.908;2023-03-30T10:37:02;6.03;;;3.03;;
13683;SDS011;6914;53.552;9.908;2023-03-30T10:39:37;8.17;;;3.50;;
13683;SDS011;6914;53.552;9.908;2023-03-30T10:42:07;6.73;;;2.90;;
13683;SDS011;6914;53.552;9.908;2023-03-30T10:44:42;8.93;;;3.90;;
13683;SDS011;6914;53.552;9.908;2023-03-30T10:50:22;3.27;;;2.97;;
13683;SDS011;6914;53.552;9.908;2023-03-30T10:52:57;5.13;;;2.83;;
13683;SDS011;6914;53.552;9.908;2023-03-30T10:55:32;2.87;;;2.67;;
13683;SDS011;6914;53.552;9.908;2023-03-30T10:58:08;5.63;;;3.30;;
13683;SDS011;6914;53.552;9.908;2023-03-30T11:00:48;5.73;;;3.50;;
13683;SDS011;6914;53.552;9.908;2023-03-30T11:03:33;3.30;;;2.90;;
13683;SDS011;6914;53.552;9.908;2023-03-30T11:06:03;5.70;;;3.33;;
13683;SDS011;6914;53.552;9.908;2023-03-30T11:08:36;16.17;;;3.10;;
13683;SDS011;6914;53.552;9.908;2023-03-30T11:11:05;7.90;;;2.83;;
13683;SDS011;6914;53.552;9.908;2023-03-30T11:13:38;14.37;;;2.20;;
13683;SDS011;6914;53.552;9.908;2023-03-30T11:16:10;5.10;;;2.43;;
13683;SDS011;6914;53.552;9.908;2023-03-30T11:18:42;4.57;;;2.23;;
13683;SDS011;6914;53.552;9.908;2023-03-30T11:21:18;8.90;;;2.80;;
13683;SDS011;6914;53.552;9.908;2023-03-30T11:23:50;10.93;;;2.50;;
13683;SDS011;6914;53.552;9.908;2023-03-30T11:26:20;3.53;;;2.30;;
13683;SDS011;6914;53.552;9.908;2023-03-30T11:29:09;5.10;;;1.90;;
13683;SDS011;6914;53.552;9.908;2023-03-30T11:31:47;4.77;;;1.97;;
13683;SDS011;6914;53.552;9.908;2023-03-30T11:34:24;2.70;;;1.40;;
13683;SDS011;6914;53.552;9.908;2023-03-30T11:36:57;2.67;;;1.20;;
13683;SDS011;6914;53.552;9.908;2023-03-30T11:39:28;3.53;;;1.47;;
13683;SDS011;6914;53.552;9.908;2023-03-30T11:41:59;8.73;;;1.90;;
13683;SDS011;6914;53.552;9.908;2023-03-30T11:44:38;7.57;;;1.50;;
13683;SDS011;6914;53.552;9.908;2023-03-30T11:47:10;3.13;;;1.00;;
13683;SDS011;6914;53.552;9.908;2023-03-30T11:49:52;2.70;;;1.57;;
13683;SDS011;6914;53.552;9.908;2023-03-30T11:52:30;14.87;;;1.80;;
13683;SDS011;6914;53.552;9.908;2023-03-30T11:55:14;7.10;;;1.67;;
13683;SDS011;6914;53.552;9.908;2023-03-30T11:57:57;5.57;;;1.80;;
13683;SDS011;6914;53.552;9.908;2023-03-30T12:00:37;4.13;;;1.80;;
13683;SDS011;6914;53.552;9.908;2023-03-30T12:03:16;6.80;;;1.60;;
13683;SDS011;6914;53.552;9.908;2023-03-30T12:05:56;6.43;;;2.57;;
13683;SDS011;6914;53.552;9.908;2023-03-30T12:08:37;4.20;;;2.03;;
13683;SDS011;6914;53.552;9.908;2023-03-30T12:11:20;8.23;;;2.20;;
13683;SDS011;6914;53.552;9.908;2023-03-30T12:13:52;2.77;;;1.80;;
13683;SDS011;6914;53.552;9.908;2023-03-30T12:16:21;3.47;;;1.53;;
13683;SDS011;6914;53.552;9.908;2023-03-30T12:18:56;8.33;;;2.67;;
13683;SDS011;6914;53.552;9.908;2023-03-30T12:21:32;8.90;;;2.60;;
13683;SDS011;6914;53.552;9.908;2023-03-30T12:24:07;4.93;;;2.77;;
13683;SDS011;6914;53.552;9.908;2023-03-30T12:26:40;12.37;;;2.60;;
13683;SDS011;6914;53.552;9.908;2023-03-30T12:29:09;12.07;;;3.00;;
13683;SDS011;6914;53.552;9.908;2023-03-30T12:31:49;10.80;;;2.30;;
13683;SDS011;6914;53.552;9.908;2023-03-30T12:34:28;13.70;;;2.87;;
13683;SDS011;6914;53.552;9.908;2023-03-30T12:36:58;9.20;;;2.40;;
13683;SDS011;6914;53.552;9.908;2023-03-30T12:39:31;20.23;;;3.13;;
13683;SDS011;6914;53.552;9.908;2023-03-30T12:42:02;9.97;;;2.50;;
13683;SDS011;6914;53.552;9.908;2023-03-30T12:44:39;8.97;;;2.40;;
13683;SDS011;6914;53.552;9.908;2023-03-30T12:47:18;11.53;;;2.23;;
13683;SDS011;6914;53.552;9.908;2023-03-30T12:50:10;14.23;;;2.90;;
13683;SDS011;6914;53.552;9.908;2023-03-30T12:52:48;22.00;;;2.60;;
13683;SDS011;6914;53.552;9.908;2023-03-30T12:55:29;12.70;;;2.90;;
13683;SDS011;6914;53.552;9.908;2023-03-30T13:01:02;13.17;;;2.73;;
13683;SDS011;6914;53.552;9.908;2023-03-30T13:03:39;7.30;;;2.00;;
13683;SDS011;6914;53.552;9.908;2023-03-30T13:06:18;15.83;;;2.60;;
13683;SDS011;6914;53.552;9.908;2023-03-30T13:08:52;8.63;;;2.30;;
13683;SDS011;6914;53.552;9.908;2023-03-30T13:11:22;8.60;;;1.87;;
13683;SDS011;6914;53.552;9.908;2023-03-30T13:13:50;9.70;;;2.17;;
13683;SDS011;6914;53.552;9.908;2023-03-30T13:19:40;18.37;;;3.30;;
13683;SDS011;6914;53.552;9.908;2023-03-30T13:22:23;14.97;;;2.43;;
13683;SDS011;6914;53.552;9.908;2023-03-30T13:24:54;10.80;;;2.77;;
13683;SDS011;6914;53.552;9.908;2023-03-30T13:27:25;11.70;;;2.80;;
13683;SDS011;6914;53.552;9.908;2023-03-30T13:29:58;8.37;;;1.97;;
13683;SDS011;6914;53.552;9.908;2023-03-30T13:35:36;10.33;;;2.20;;
13683;SDS011;6914;53.552;9.908;2023-03-30T13:38:23;5.73;;;1.77;;
13683;SDS011;6914;53.552;9.908;2023-03-30T13:43:56;14.07;;;2.10;;
13683;SDS011;6914;53.552;9.908;2023-03-30T13:46:33;7.87;;;2.23;;
13683;SDS011;6914;53.552;9.908;2023-03-30T13:49:07;8.20;;;2.37;;
13683;SDS011;6914;53.552;9.908;2023-03-30T13:51:44;14.20;;;2.50;;
13683;SDS011;6914;53.552;9.908;2023-03-30T13:54:13;11.33;;;1.90;;
13683;SDS011;6914;53.552;9.908;2023-03-30T13:56:45;11.23;;;2.07;;
13683;SDS011;6914;53.552;9.908;2023-03-30T13:59:15;5.00;;;1.60;;
13683;SDS011;6914;53.552;9.908;2023-03-30T14:01:45;5.97;;;1.80;;
13683;SDS011;6914;53.552;9.908;2023-03-30T14:04:15;5.80;;;1.97;;
13683;SDS011;6914;53.552;9.908;2023-03-30T14:06:43;4.10;;;1.37;;
13683;SDS011;6914;53.552;9.908;2023-03-30T14:09:17;5.40;;;1.90;;
13683;SDS011;6914;53.552;9.908;2023-03-30T14:11:46;11.73;;;2.20;;
13683;SDS011;6914;53.552;9.908;2023-03-30T14:14:16;8.03;;;1.87;;
13683;SDS011;6914;53.552;9.908;2023-03-30T14:16:52;3.30;;;1.57;;
13683;SDS011;6914;53.552;9.908;2023-03-30T14:19:20;7.40;;;1.90;;
13683;SDS011;6914;53.552;9.908;2023-03-30T14:21:52;3.77;;;1.90;;
13683;SDS011;6914;53.552;9.908;2023-03-30T14:24:25;4.50;;;1.57;;
13683;SDS011;6914;53.552;9.908;2023-03-30T14:26:56;9.40;;;2.00;;
13683;SDS011;6914;53.552;9.908;2023-03-30T14:29:26;4.13;;;1.80;;
13683;SDS011;6914;53.552;9.908;2023-03-30T14:31:58;7.20;;;1.70;;
13683;SDS011;6914;53.552;9.908;2023-03-30T14:34:27;10.13;;;2.37;;
13683;SDS011;6914;53.552;9.908;2023-03-30T14:36:58;6.30;;;1.87;;
13683;SDS011;6914;53.552;9.908;2023-03-30T14:39:26;12.37;;;2.10;;
13683;SDS011;6914;53.552;9.908;2023-03-30T14:42:07;8.67;;;1.97;;
13683;SDS011;6914;53.552;9.908;2023-03-30T14:44:40;9.97;;;2.07;;
13683;SDS011;6914;53.552;9.908;2023-03-30T14:47:09;7.67;;;2.20;;
13683;SDS011;6914;53.552;9.908;2023-03-30T14:49:37;5.10;;;1.80;;
13683;SDS011;6914;53.552;9.908;2023-03-30T14:52:09;6.40;;;1.70;;
13683;SDS011;6914;53.552;9.908;2023-03-30T14:54:42;10.87;;;2.63;;
13683;SDS011;6914;53.552;9.908;2023-03-30T14:57:11;8.60;;;1.87;;
13683;SDS011;6914;53.552;9.908;2023-03-30T14:59:42;10.60;;;2.70;;
13683;SDS011;6914;53.552;9.908;2023-03-30T15:02:15;16.87;;;2.00;;
13683;SDS011;6914;53.552;9.908;2023-03-30T15:04:44;7.40;;;2.30;;
13683;SDS011;6914;53.552;9.908;2023-03-30T15:07:13;7.83;;;2.70;;
13683;SDS011;6914;53.552;9.908;2023-03-30T15:09:42;5.77;;;2.07;;
13683;SDS011;6914;53.552;9.908;2023-03-30T15:12:14;7.77;;;1.83;;
13683;SDS011;6914;53.552;9.908;2023-03-30T15:14:45;9.60;;;1.93;;
13683;SDS011;6914;53.552;9.908;2023-03-30T15:17:14;5.57;;;1.50;;
13683;SDS011;6914;53.552;9.908;2023-03-30T15:19:45;3.70;;;1.90;;
13683;SDS011;6914;53.552;9.908;2023-03-30T15:22:18;15.57;;;2.17;;
13683;SDS011;6914;53.552;9.908;2023-03-30T15:24:51;6.60;;;1.57;;
13683;SDS011;6914;53.552;9.908;2023-03-30T15:27:19;6.50;;;2.23;;
13683;SDS011;6914;53.552;9.908;2023-03-30T15:29:47;11.97;;;2.30;;
13683;SDS011;6914;53.552;9.908;2023-03-30T15:32:15;6.77;;;2.20;;
13683;SDS011;6914;53.552;9.908;2023-03-30T15:34:57;14.03;;;2.17;;
13683;SDS011;6914;53.552;9.908;2023-03-30T15:37:28;12.40;;;1.87;;
13683;SDS011;6914;53.552;9.908;2023-03-30T15:39:56;6.83;;;1.50;;